Time;durP1;ratioP1;P1;durP2;ratioP2;P2;SDS_P1;SDS_P2;PMS_P1;PMS_P2;Temp;Humidity;BMP_temperature;BMP_pressure;BME280_temperature;BME280_humidity;BME280_pressure;Samples;Min_cycle;Max_cycle;Signal;HPM_P1;HPM_P2
2022/06/18 00:03:56;;;;;;;10.85;3.80;;;;;;;18.44;71.07;101011.60;3731135;78;99447;-84
2022/06/18 00:08:57;;;;;;;8.83;3.30;;;;;;;18.39;70.00;101005.89;3738830;78;99049;-84
2022/06/18 00:13:58;;;;;;;9.80;4.07;;;;;;;18.38;71.02;100999.33;3750708;78;99207;-84
2022/06/18 00:18:59;;;;;;;7.03;3.77;;;;;;;18.37;70.85;101000.55;3701437;78;98924;-84
2022/06/18 00:24:00;;;;;;;8.03;4.33;;;;;;;18.40;71.33;100996.31;3660804;79;98614;-84
2022/06/18 00:29:01;;;;;;;10.83;3.87;;;;;;;18.37;70.03;100992.18;3743009;78;99161;-84
2022/06/18 00:34:02;;;;;;;7.43;3.63;;;;;;;18.38;70.41;100997.94;3726472;78;98208;-82
2022/06/18 00:39:04;;;;;;;7.10;3.73;;;;;;;18.41;70.95;100999.28;3725454;78;98446;-82
2022/06/18 00:44:16;;;;;;;9.27;3.97;;;;;;;18.42;71.08;100993.89;3738398;78;97858;-82
2022/06/18 00:49:41;;;;;;;7.00;3.35;;;;;;;18.48;71.20;100994.24;3735115;77;98760;-82
2022/06/18 00:54:54;;;;;;;9.33;3.85;;;;;;;18.47;70.37;100994.06;3705059;78;98184;-83
2022/06/18 01:00:13;;;;;;;7.35;3.00;;;;;;;18.47;69.54;100985.08;3714434;78;99026;-82
2022/06/18 01:05:25;;;;;;;10.63;3.25;;;;;;;18.45;69.45;100977.75;3736553;78;98569;-83
2022/06/18 01:10:37;;;;;;;5.28;2.80;;;;;;;18.45;69.82;100970.77;3654140;77;98615;-81
2022/06/18 01:15:39;;;;;;;7.35;3.10;;;;;;;18.49;69.44;100973.52;3728012;78;98901;-83
2022/06/18 01:20:58;;;;;;;6.80;3.00;;;;;;;18.48;69.36;100972.71;3733026;77;98220;-82
2022/06/18 01:26:00;;;;;;;9.33;2.95;;;;;;;18.47;69.44;100960.61;3729813;78;98762;-83
2022/06/18 01:31:01;;;;;;;7.35;3.35;;;;;;;18.47;69.75;100956.42;3739393;78;98742;-82
2022/06/18 01:36:07;;;;;;;6.27;3.03;;;;;;;18.46;69.92;100956.22;3721413;78;98243;-82
2022/06/18 01:46:45;;;;;;;7.60;3.55;;;;;;;18.42;70.49;100942.95;3733644;78;85107;-82
2022/06/18 01:51:47;;;;;;;;;;;;;;;18.38;69.60;100929.66;3745163;77;99257;-82
2022/06/18 01:56:53;;;;;;;7.72;3.25;;;;;;;18.38;69.67;100934.64;3741527;78;84761;-82
2022/06/18 02:01:56;;;;;;;8.73;4.00;;;;;;;18.32;68.70;100932.72;3735992;78;98702;-82
2022/06/18 02:06:57;;;;;;;9.58;3.72;;;;;;;18.28;67.90;100931.34;3741962;78;98455;-83
2022/06/18 02:12:05;;;;;;;11.18;4.10;;;;;;;18.25;67.71;100932.16;3751744;78;98675;-82
2022/06/18 02:17:10;;;;;;;8.80;4.03;;;;;;;18.26;67.47;100927.39;3644596;79;99334;-83
2022/06/18 02:22:12;;;;;;;9.63;3.62;;;;;;;18.27;67.24;100914.45;3644519;79;98593;-82
2022/06/18 02:27:15;;;;;;;6.87;3.80;;;;;;;18.27;67.08;100915.03;3646084;81;99324;-82
2022/06/18 02:32:21;;;;;;;6.95;3.52;;;;;;;18.27;66.83;100915.03;3741935;78;99188;-82
2022/06/18 02:37:26;;;;;;;6.45;3.42;;;;;;;18.30;67.06;100912.79;3736171;78;98588;-82
2022/06/18 02:42:32;;;;;;;6.37;2.98;;;;;;;18.31;66.84;100910.22;3747642;78;97812;-83
2022/06/18 02:47:34;;;;;;;6.20;3.27;;;;;;;18.33;66.50;100909.22;3731604;77;98658;-83
2022/06/18 02:52:47;;;;;;;6.97;3.65;;;;;;;18.34;66.02;100910.20;3751235;77;98762;-83
2022/06/18 02:57:51;;;;;;;7.15;3.20;;;;;;;18.40;66.80;100910.51;3724729;78;98760;-83
2022/06/18 03:02:52;;;;;;;9.55;3.55;;;;;;;18.42;66.61;100899.13;3737627;78;98853;-82
2022/06/18 03:07:53;;;;;;;9.93;3.50;;;;;;;18.43;65.81;100898.53;3709350;78;98735;-83
2022/06/18 03:12:54;;;;;;;8.27;3.80;;;;;;;18.45;65.32;100890.53;3746575;78;27494;-83
2022/06/18 03:17:56;;;;;;;7.80;3.43;;;;;;;18.45;65.07;100895.52;3722873;78;99176;-82
2022/06/18 03:22:57;;;;;;;5.57;3.10;;;;;;;18.48;65.28;100893.27;3744282;78;98454;-82
2022/06/18 03:27:58;;;;;;;8.60;4.10;;;;;;;18.52;65.25;100882.09;3734768;78;98672;-82
2022/06/18 03:32:59;;;;;;;6.53;3.23;;;;;;;18.59;65.13;100878.58;3740313;78;98795;-82
2022/06/18 03:38:01;;;;;;;9.60;4.03;;;;;;;18.59;65.13;100878.58;3737845;78;99104;-82
2022/06/18 03:43:02;;;;;;;10.50;5.00;;;;;;;18.63;64.51;100874.37;3733679;78;26493;-82
2022/06/18 03:48:05;;;;;;;8.17;3.97;;;;;;;18.68;64.19;100872.48;3734217;78;99113;-82
2022/06/18 03:53:07;;;;;;;7.83;3.90;;;;;;;18.74;64.42;100862.45;3735987;78;99217;-82
2022/06/18 03:58:09;;;;;;;7.62;3.90;;;;;;;18.79;64.08;100865.54;3646705;78;99281;-82
2022/06/18 04:03:09;;;;;;;8.23;4.20;;;;;;;18.86;63.58;100857.67;3647130;80;99029;-83
2022/06/18 04:08:17;;;;;;;6.20;3.53;;;;;;;18.94;63.96;100857.73;3729398;78;99103;-82
2022/06/18 04:13:18;;;;;;;7.33;3.95;;;;;;;19.00;63.69;100848.47;3754640;78;33505;-83
2022/06/18 04:18:19;;;;;;;8.10;3.80;;;;;;;19.06;63.31;100833.42;3719501;78;98973;-82
2022/06/18 04:23:21;;;;;;;7.58;3.62;;;;;;;19.14;63.16;100833.49;3740399;78;98666;-82
2022/06/18 04:28:22;;;;;;;8.23;3.47;;;;;;;19.18;62.85;100825.23;3743465;78;98428;-83
2022/06/18 04:33:23;;;;;;;8.33;3.43;;;;;;;19.26;62.44;100840.69;3740602;77;98761;-83
2022/06/18 04:38:26;;;;;;;4.90;3.17;;;;;;;19.34;62.17;100839.33;3740786;78;98906;-83
2022/06/18 04:43:27;;;;;;;6.30;3.15;;;;;;;19.42;61.78;100842.19;3747679;78;33357;-83
2022/06/18 04:48:28;;;;;;;9.07;3.90;;;;;;;19.49;61.88;100832.27;3737539;78;98936;-82
2022/06/18 04:53:29;;;;;;;8.50;3.50;;;;;;;19.54;61.33;100827.59;3742300;77;99102;-83
2022/06/18 04:58:30;;;;;;;7.37;3.43;;;;;;;19.61;61.05;100822.49;3738242;78;98909;-83
2022/06/18 05:03:32;;;;;;;8.20;3.77;;;;;;;19.69;60.99;100813.55;3741713;78;98831;-82
2022/06/18 05:08:33;;;;;;;6.77;3.83;;;;;;;19.79;60.89;100809.72;3730447;78;99301;-84
2022/06/18 05:13:34;;;;;;;7.47;3.70;;;;;;;19.90;60.55;100811.69;3648057;79;28424;-82
2022/06/18 05:18:35;;;;;;;10.77;3.50;;;;;;;20.00;60.61;100803.70;3583803;81;98915;-83
2022/06/18 05:23:36;;;;;;;10.23;3.73;;;;;;;20.14;60.15;100808.23;3642678;79;99091;-83
2022/06/18 05:28:37;;;;;;;9.57;3.83;;;;;;;20.24;59.91;100788.44;3643342;79;99431;-82
2022/06/18 05:33:38;;;;;;;15.40;4.33;;;;;;;20.40;59.83;100777.89;3650874;79;99287;-83
2022/06/18 05:38:39;;;;;;;9.63;4.10;;;;;;;20.54;59.95;100771.34;3634097;79;99432;-84
2022/06/18 05:43:40;;;;;;;8.70;3.40;;;;;;;20.72;59.60;100775.88;3752423;78;31571;-84
2022/06/18 05:48:42;;;;;;;6.85;3.35;;;;;;;20.94;59.67;100783.98;3728542;77;98837;-81
2022/06/18 05:53:43;;;;;;;8.00;3.25;;;;;;;21.16;58.37;100788.40;3745697;78;98531;-84
2022/06/18 05:58:44;;;;;;;6.80;3.12;;;;;;;21.38;57.31;100786.00;3725430;78;98971;-83
2022/06/18 06:03:45;;;;;;;6.47;3.17;;;;;;;21.55;56.72;100783.92;3731455;78;98953;-84
2022/06/18 06:08:46;;;;;;;8.05;3.80;;;;;;;21.77;56.33;100770.30;3748475;77;97895;-84
2022/06/18 06:13:47;;;;;;;8.08;3.90;;;;;;;21.89;55.53;100766.74;3716883;78;31536;-83
2022/06/18 06:18:48;;;;;;;12.23;3.85;;;;;;;22.02;54.99;100771.73;3573029;81;98434;-84
2022/06/18 06:23:50;;;;;;;10.28;3.77;;;;;;;22.13;54.61;100777.81;3545748;82;99136;-84
2022/06/18 06:28:51;;;;;;;11.05;4.28;;;;;;;22.23;54.44;100767.52;3706372;77;99387;-83
2022/06/18 06:33:52;;;;;;;10.53;3.90;;;;;;;22.55;53.98;100766.69;3654570;79;99092;-79
2022/06/18 06:38:53;;;;;;;9.73;4.20;;;;;;;22.87;53.86;100755.80;3638566;79;98906;-81
2022/06/18 06:43:54;;;;;;;8.23;3.62;;;;;;;23.19;52.73;100754.92;3727778;78;98919;-80
2022/06/18 06:48:55;;;;;;;10.03;3.67;;;;;;;23.56;52.57;100752.56;3725242;78;98639;-80
2022/06/18 06:53:56;;;;;;;10.40;3.90;;;;;;;23.91;52.09;100751.25;3717698;77;98050;-81
2022/06/18 06:58:58;;;;;;;7.60;3.87;;;;;;;24.39;51.18;100747.73;3699742;77;99141;-80
2022/06/18 07:03:59;;;;;;;8.80;3.65;;;;;;;24.73;49.41;100749.60;3708424;78;98966;-80
2022/06/18 07:09:00;;;;;;;13.43;4.35;;;;;;;25.16;48.95;100745.11;3694498;78;98791;-80
2022/06/18 07:14:01;;;;;;;9.95;3.40;;;;;;;25.68;48.55;100727.89;3651101;79;98739;-80
2022/06/18 07:19:02;;;;;;;7.72;3.47;;;;;;;26.23;46.99;100720.23;3649109;79;98990;-80
2022/06/18 07:24:04;;;;;;;8.30;3.47;;;;;;;26.79;46.00;100706.77;3705522;78;98707;-81
2022/06/18 07:29:05;;;;;;;6.70;3.17;;;;;;;27.16;44.88;100706.64;3704912;77;98935;-80
2022/06/18 07:34:07;;;;;;;6.42;3.22;;;;;;;27.52;43.83;100704.94;3703564;78;98816;-81
2022/06/18 07:39:07;;;;;;;8.73;3.00;;;;;;;27.74;42.45;100696.20;3690840;78;99067;-80
2022/06/18 07:44:11;;;;;;;5.55;2.50;;;;;;;28.08;42.44;100696.95;3714779;78;98447;-80
2022/06/18 07:49:12;;;;;;;5.62;2.65;;;;;;;28.58;40.23;100685.77;3585456;80;97783;-81
2022/06/18 07:54:15;;;;;;;6.17;2.25;;;;;;;28.63;39.20;100687.11;3596162;80;98678;-79
2022/06/18 07:59:20;;;;;;;6.85;1.95;;;;;;;29.01;40.00;100689.06;3590444;80;98507;-79
2022/06/18 08:04:21;;;;;;;;;;;;;;;29.39;37.87;100686.52;3609504;77;98523;-80
2022/06/18 08:09:22;;;;;;;5.30;1.85;;;;;;;29.59;35.26;100679.41;3699300;77;85271;-80
2022/06/18 08:14:23;;;;;;;3.95;1.60;;;;;;;29.74;36.98;100674.39;3665017;78;98800;-79
2022/06/18 08:19:24;;;;;;;6.90;1.70;;;;;;;29.91;36.08;100672.47;3656057;78;98695;-79
2022/06/18 08:24:26;;;;;;;7.70;2.00;;;;;;;30.49;35.99;100659.86;3659629;78;97932;-82
2022/06/18 08:29:27;;;;;;;3.47;1.57;;;;;;;30.82;34.78;100657.20;3667007;78;99041;-81
2022/06/18 08:34:28;;;;;;;4.03;2.02;;;;;;;30.84;34.14;100652.44;3659132;78;99147;-80
2022/06/18 08:39:32;;;;;;;6.80;1.40;;;;;;;31.03;34.48;100646.41;3664388;78;98867;-79
2022/06/18 08:45:05;;;;;;;3.15;1.60;;;;;;;31.33;32.80;100648.98;3619384;80;97986;-81
2022/06/18 08:50:23;;;;;;;4.10;1.50;;;;;;;31.40;32.69;100630.77;3655959;78;98422;-79
2022/06/18 08:55:57;;;;;;;3.35;1.90;;;;;;;31.63;32.52;100620.95;3575263;81;25848;-80
2022/06/18 09:01:24;;;;;;;7.10;1.80;;;;;;;31.50;31.77;100612.13;3654940;78;98793;-79
2022/06/18 09:06:39;;;;;;;5.25;2.15;;;;;;;31.68;31.94;100606.58;3568561;81;98977;-80
2022/06/18 09:12:01;;;;;;;5.35;1.47;;;;;;;31.97;31.78;100597.52;3661410;78;98341;-77
2022/06/18 09:17:38;;;;;;;3.98;1.32;;;;;;;32.22;31.29;100593.59;3709228;78;98843;-79
2022/06/18 09:22:45;;;;;;;2.85;1.50;;;;;;;32.42;29.01;100576.21;3712636;78;98922;-78
2022/06/18 09:27:57;;;;;;;5.75;1.60;;;;;;;32.33;29.54;100573.64;3711292;77;98415;-80
2022/06/18 09:33:02;;;;;;;4.00;1.70;;;;;;;32.56;28.68;100569.40;3708649;78;98874;-78
2022/06/18 09:38:27;;;;;;;8.08;1.85;;;;;;;32.79;29.39;100562.34;3699804;78;98841;-77
2022/06/18 09:43:57;;;;;;;4.50;1.80;;;;;;;33.18;28.90;100557.91;3650612;79;25810;-80
2022/06/18 09:48:59;;;;;;;4.00;1.50;;;;;;;33.09;26.37;100548.27;3630317;78;98758;-79
2022/06/18 09:54:05;;;;;;;2.55;1.32;;;;;;;32.36;27.53;100544.88;3623568;79;99120;-79
2022/06/18 09:59:19;;;;;;;7.00;1.85;;;;;;;32.20;27.73;100522.14;3629907;78;98846;-78
2022/06/18 10:10:13;;;;;;;6.58;1.70;;;;;;;32.83;28.85;100509.42;3630735;77;99278;-78
2022/06/18 10:15:17;;;;;;;3.83;1.75;;;;;;;33.47;28.55;100505.05;3680952;78;99130;-80
2022/06/18 10:20:26;;;;;;;3.27;1.40;;;;;;;33.72;27.52;100505.20;3668989;78;98359;-80
2022/06/18 10:25:45;;;;;;;5.28;1.30;;;;;;;33.95;26.82;100508.72;3664584;78;98996;-80
2022/06/18 10:30:54;;;;;;;5.58;1.67;;;;;;;34.10;26.19;100494.03;3666814;78;98979;-82
2022/06/18 10:36:16;;;;;;;2.65;1.35;;;;;;;34.27;26.67;100482.52;3688865;78;98963;-81
2022/06/18 10:41:41;;;;;;;3.47;1.82;;;;;;;34.25;25.95;100471.48;3673904;78;98821;-79
2022/06/18 10:46:42;;;;;;;2.67;1.47;;;;;;;34.57;27.26;100465.22;3617586;81;98934;-81
2022/06/18 10:51:47;;;;;;;3.50;1.52;;;;;;;35.08;25.89;100458.97;3672760;79;98781;-79
2022/06/18 10:56:53;;;;;;;4.33;1.37;;;;;;;35.36;25.95;100452.81;3671467;77;98970;-80
2022/06/18 11:01:54;;;;;;;6.33;2.10;;;;;;;35.60;24.94;100453.39;3675357;78;25721;-80
2022/06/18 11:07:00;;;;;;;4.28;1.98;;;;;;;35.77;25.24;100452.43;3679582;77;99180;-79
2022/06/18 11:12:06;;;;;;;2.27;1.50;;;;;;;35.31;25.46;100450.14;3689400;78;98601;-78
2022/06/18 11:17:33;;;;;;;6.10;1.50;;;;;;;35.06;24.42;100453.68;3652154;78;98829;-80
2022/06/18 11:22:37;;;;;;;10.78;2.90;;;;;;;34.89;25.03;100443.96;3681421;78;97939;-78
2022/06/18 11:27:38;;;;;;;3.75;1.65;;;;;;;35.02;25.68;100435.41;3559546;80;98744;-77
2022/06/18 11:32:47;;;;;;;5.50;1.90;;;;;;;35.55;25.36;100422.77;3655384;78;99182;-77
2022/06/18 11:38:04;;;;;;;5.92;2.25;;;;;;;35.71;25.40;100414.55;3647710;78;99287;-78
2022/06/18 11:43:36;;;;;;;6.40;2.10;;;;;;;35.86;25.58;100416.84;3660850;78;99059;-79
2022/06/18 11:49:08;;;;;;;3.30;1.70;;;;;;;36.08;25.03;100405.66;3616151;79;98880;-80
2022/06/18 11:54:21;;;;;;;4.65;2.00;;;;;;;36.50;24.90;100393.00;3680724;78;99023;-78
2022/06/18 12:00:01;;;;;;;3.87;2.20;;;;;;;36.78;24.30;100382.33;3659818;78;98925;-78
2022/06/18 12:05:13;;;;;;;5.67;2.27;;;;;;;36.86;23.93;100375.33;3663626;78;99206;-79
2022/06/18 12:10:18;;;;;;;5.53;2.17;;;;;;;36.93;23.90;100376.05;3660370;76;99304;-79
2022/06/18 12:15:34;;;;;;;6.95;1.98;;;;;;;36.93;24.10;100367.45;3697679;78;99186;-79
2022/06/18 12:20:59;;;;;;;6.47;1.92;;;;;;;36.98;23.25;100368.62;3684028;78;98815;-80
2022/06/18 12:26:23;;;;;;;6.20;2.02;;;;;;;37.05;23.58;100357.89;3633901;79;26166;-78
2022/06/18 12:31:54;;;;;;;2.72;1.50;;;;;;;37.18;23.35;100347.77;3566222;81;98803;-77
2022/06/18 12:37:41;;;;;;;4.97;2.45;;;;;;;37.24;23.65;100336.90;3546594;81;98917;-83
2022/06/18 12:42:53;;;;;;;10.05;2.10;;;;;;;37.29;23.47;100340.28;3598123;80;98641;-78
2022/06/18 12:48:23;;;;;;;4.53;1.57;;;;;;;36.96;22.26;100338.30;3536609;82;99250;-78
2022/06/18 12:53:56;;;;;;;6.97;2.62;;;;;;;36.84;23.11;100323.45;3574614;80;98045;-78
2022/06/18 12:59:45;;;;;;;3.30;1.60;;;;;;;36.21;22.82;100313.18;3559526;80;99210;-80
2022/06/18 13:05:34;;;;;;;6.28;1.70;;;;;;;36.19;24.04;100300.08;3626088;79;99205;-82
2022/06/18 13:11:12;;;;;;;5.03;1.92;;;;;;;36.37;23.50;100296.23;3535617;81;99381;-79
2022/06/18 13:16:33;;;;;;;6.78;2.00;;;;;;;36.74;23.84;100290.89;3590472;80;99120;-78
2022/06/18 13:21:34;;;;;;;8.53;1.90;;;;;;;37.04;23.41;100273.12;3666274;78;98849;-78
2022/06/18 13:32:28;;;;;;;6.65;2.10;;;;;;;37.35;23.79;100264.15;3595647;81;26346;-82
2022/06/18 13:37:49;;;;;;;7.55;1.98;;;;;;;37.30;22.67;100256.47;3581730;80;98767;-78
2022/06/18 13:43:10;;;;;;;5.37;1.90;;;;;;;37.13;23.88;100259.70;3644881;79;99054;-78
2022/06/18 13:48:39;;;;;;;9.25;2.20;;;;;;;36.94;23.06;100249.89;3556495;81;98604;-79
2022/06/18 13:53:44;;;;;;;8.03;2.47;;;;;;;36.99;23.03;100240.36;3593200;79;98447;-77
2022/06/18 13:58:57;;;;;;;6.65;2.25;;;;;;;37.14;23.30;100233.97;3534402;82;99368;-79
2022/06/18 14:04:09;;;;;;;7.23;2.27;;;;;;;37.16;22.52;100230.64;3598518;81;98053;-79
2022/06/18 14:09:24;;;;;;;7.53;2.40;;;;;;;36.86;22.57;100235.41;3558781;80;98837;-80
2022/06/18 14:14:38;;;;;;;6.50;2.10;;;;;;;36.84;22.46;100234.52;3637413;78;26199;-79
2022/06/18 14:19:45;;;;;;;;;;;;;;;36.92;23.55;100227.41;3607575;79;98766;-80
2022/06/18 14:24:59;;;;;;;6.40;2.15;;;;;;;37.06;23.12;100210.19;3599420;79;84147;-78
2022/06/18 14:30:03;;;;;;;10.58;2.22;;;;;;;37.11;23.89;100209.29;3605021;79;98807;-80
2022/06/18 14:35:21;;;;;;;7.78;2.35;;;;;;;37.00;23.49;100200.97;3606137;79;99044;-79
2022/06/18 14:41:34;;;;;;;8.88;2.37;;;;;;;36.91;22.69;100188.58;3602101;79;98865;-80
2022/06/18 14:46:17;;;;;;;9.43;2.47;;;;;;;36.58;23.23;100198.08;3632297;79;98799;-80
2022/06/18 14:51:43;;;;;;;6.20;2.08;;;;;;;36.41;23.40;100189.16;3629316;79;99161;-81
2022/06/18 14:57:20;;;;;;;8.03;2.52;;;;;;;36.40;23.64;100182.64;3605490;78;99550;-81
2022/06/18 15:02:46;;;;;;;8.40;2.20;;;;;;;36.30;24.57;100173.69;3628380;79;26614;-81
2022/06/18 15:07:47;;;;;;;7.35;2.35;;;;;;;36.21;25.06;100167.02;3619791;79;98788;-81
2022/06/18 15:12:51;;;;;;;4.60;2.00;;;;;;;36.02;24.34;100167.20;3623563;78;99023;-81
2022/06/18 15:18:04;;;;;;;;;;;;;;;35.79;25.01;100162.60;3667444;78;98797;-81
2022/06/18 15:23:00;;;;;;;8.78;2.60;;;;;;;35.82;24.36;100166.55;3666949;78;84331;-80
2022/06/18 15:28:03;;;;;;;8.90;2.30;;;;;;;35.59;25.05;100163.31;3662115;78;99000;-81
2022/06/18 15:33:18;;;;;;;14.50;3.05;;;;;;;35.48;25.50;100162.89;3670326;78;26531;-80
2022/06/18 15:38:32;;;;;;;10.18;2.90;;;;;;;35.33;25.23;100157.02;3664502;78;99127;-80
2022/06/18 15:43:46;;;;;;;;;;;;;;;35.22;25.74;100150.08;3684118;78;99270;-80
2022/06/18 15:48:51;;;;;;;6.92;2.45;;;;;;;35.02;26.19;100133.59;3667370;78;84027;-81
2022/06/18 15:54:01;;;;;;;10.72;3.60;;;;;;;34.76;26.15;100137.16;3676269;78;98919;-80
2022/06/18 15:59:05;;;;;;;7.35;3.00;;;;;;;34.55;25.91;100137.69;3664011;78;99687;-81
2022/06/18 16:04:06;;;;;;;;;;;;;;;34.32;26.52;100130.86;3683965;78;98746;-80
2022/06/18 16:09:15;;;;;;;11.88;2.50;;;;;;;34.07;26.71;100140.23;3671860;78;84759;-79
2022/06/18 16:14:25;;;;;;;14.38;3.20;;;;;;;33.77;26.17;100133.17;3653440;78;99186;-79
2022/06/18 16:19:29;;;;;;;15.32;3.22;;;;;;;33.56;26.45;100142.98;3647467;79;98898;-80
2022/06/18 16:24:36;;;;;;;11.05;3.17;;;;;;;33.42;27.25;100142.83;3654832;79;99574;-80
2022/06/18 16:29:39;;;;;;;11.55;3.52;;;;;;;33.24;27.91;100147.08;3652510;79;99139;-80
2022/06/18 16:34:52;;;;;;;13.48;2.77;;;;;;;33.09;27.38;100146.76;3655256;79;99491;-79
2022/06/18 16:40:17;;;;;;;7.50;3.52;;;;;;;32.93;27.76;100138.55;3649020;79;99442;-79
2022/06/18 16:45:23;;;;;;;;;;;;;;;32.75;27.96;100138.48;3664017;79;25902;-79
2022/06/18 16:50:26;;;;;;;14.93;3.42;;;;;;;32.53;28.40;100138.08;3659669;78;84762;-80
2022/06/18 16:55:37;;;;;;;11.90;2.90;;;;;;;32.40;28.24;100137.19;3548497;81;98804;-80
2022/06/18 17:00:33;;;;;;;13.55;3.27;;;;;;;32.30;29.40;100141.05;3654174;79;99373;-81
2022/06/18 17:05:41;;;;;;;12.18;2.92;;;;;;;32.18;29.42;100141.66;3557610;81;98992;-80
2022/06/18 17:10:46;;;;;;;9.88;2.90;;;;;;;32.02;29.33;100151.12;3630048;79;98552;-79
2022/06/18 17:15:48;;;;;;;10.75;2.42;;;;;;;31.88;29.26;100143.08;3617110;78;99273;-80
2022/06/18 17:20:52;;;;;;;12.15;3.25;;;;;;;31.77;29.81;100129.61;3663017;78;98754;-79
2022/06/18 17:31:18;;;;;;;10.88;2.90;;;;;;;31.56;30.90;100126.39;3601467;80;85133;-80
2022/06/18 17:36:28;;;;;;;11.20;3.00;;;;;;;31.40;30.93;100120.16;3682681;80;98934;-80
2022/06/18 17:41:30;;;;;;;9.70;3.10;;;;;;;31.29;31.17;100123.08;3664320;80;98925;-79
2022/06/18 17:46:32;;;;;;;7.25;2.70;;;;;;;31.13;31.79;100119.66;3677575;79;98816;-80
2022/06/18 17:51:34;;;;;;;14.67;4.07;;;;;;;31.05;32.27;100119.31;3666400;79;98847;-79
2022/06/18 17:56:37;;;;;;;9.43;2.83;;;;;;;30.93;32.61;100115.74;3675550;79;98630;-82
2022/06/18 18:01:43;;;;;;;9.73;2.80;;;;;;;30.80;33.19;100119.03;3664790;80;98966;-80
2022/06/18 18:06:44;;;;;;;8.68;2.55;;;;;;;30.66;33.71;100118.69;3657322;79;99192;-80
2022/06/18 18:11:46;;;;;;;10.80;4.28;;;;;;;30.55;34.04;100123.74;3677164;79;99164;-80
2022/06/18 18:16:50;;;;;;;9.80;3.00;;;;;;;30.40;34.55;100117.58;3644244;80;99171;-80
2022/06/18 18:21:52;;;;;;;10.43;3.67;;;;;;;30.28;35.11;100114.65;3666120;79;98790;-80
2022/06/18 18:26:57;;;;;;;10.70;3.65;;;;;;;30.17;36.17;100113.88;3654422;80;99035;-81
2022/06/18 18:32:02;;;;;;;12.30;3.60;;;;;;;30.03;37.04;100117.09;3657543;80;97974;-80
2022/06/18 18:37:05;;;;;;;8.43;3.17;;;;;;;29.87;38.04;100114.29;3648148;80;99123;-79
2022/06/18 18:42:11;;;;;;;11.22;3.90;;;;;;;29.70;39.03;100117.78;3661706;80;99225;-79
2022/06/18 18:47:13;;;;;;;10.00;4.05;;;;;;;29.52;39.19;100119.02;3657954;80;99002;-81
2022/06/18 18:52:14;;;;;;;8.83;4.37;;;;;;;29.32;39.75;100117.06;3665110;80;98674;-81
2022/06/18 18:57:16;;;;;;;8.30;3.58;;;;;;;29.13;40.58;100127.30;3659844;80;99044;-80
2022/06/18 19:02:17;;;;;;;10.78;3.62;;;;;;;28.95;41.54;100130.58;3665468;80;98288;-80
2022/06/18 19:07:18;;;;;;;10.40;3.67;;;;;;;28.76;42.33;100128.07;3661335;80;98903;-79
2022/06/18 19:17:40;;;;;;;12.05;4.87;;;;;;;28.34;44.66;100141.56;3620343;81;98988;-79
2022/06/18 19:22:41;;;;;;;10.53;4.20;;;;;;;28.15;45.87;100141.05;3591209;82;99318;-79
2022/06/18 19:27:43;;;;;;;15.20;3.98;;;;;;;27.96;46.78;100140.66;3622920;81;99037;-80
2022/06/18 19:32:45;;;;;;;11.45;4.97;;;;;;;27.76;47.74;100150.62;3631151;80;34742;-79
2022/06/18 19:37:47;;;;;;;13.72;4.28;;;;;;;27.59;48.68;100163.05;3629141;80;99210;-80
2022/06/18 19:42:48;;;;;;;15.03;4.78;;;;;;;27.41;49.12;100166.22;3670938;80;99032;-80
2022/06/18 19:47:49;;;;;;;13.18;4.65;;;;;;;27.24;49.69;100164.61;3649104;80;98691;-78
2022/06/18 19:52:50;;;;;;;16.12;4.37;;;;;;;27.08;50.30;100174.30;3672366;80;98178;-80
2022/06/18 19:57:51;;;;;;;12.28;4.40;;;;;;;26.93;51.37;100182.86;3669248;80;99378;-80
2022/06/18 20:02:56;;;;;;;13.03;4.20;;;;;;;26.83;51.95;100190.53;3666300;80;34833;-80
2022/06/18 20:08:01;;;;;;;10.80;4.60;;;;;;;26.67;52.73;100194.69;3663275;80;98937;-80
2022/06/18 20:13:03;;;;;;;14.00;5.27;;;;;;;26.55;53.12;100192.20;3655362;80;99214;-80
2022/06/18 20:18:04;;;;;;;13.90;4.62;;;;;;;26.41;53.95;100188.74;3689615;79;99069;-80
2022/06/18 20:23:06;;;;;;;9.43;3.75;;;;;;;26.29;54.50;100190.64;3703338;79;99438;-80
2022/06/18 20:28:08;;;;;;;13.08;5.60;;;;;;;26.13;53.70;100203.05;3694663;79;99194;-80
2022/06/18 20:33:11;;;;;;;16.52;6.33;;;;;;;25.88;53.18;100218.50;3701448;79;26417;-80
2022/06/18 20:38:15;;;;;;;15.88;4.85;;;;;;;25.62;52.12;100232.25;3671845;79;98929;-79
2022/06/18 20:43:16;;;;;;;13.03;5.03;;;;;;;25.46;51.46;100228.48;3704116;79;99265;-80
2022/06/18 20:48:18;;;;;;;10.20;5.17;;;;;;;25.35;52.30;100235.31;3690750;79;99274;-80
2022/06/18 20:53:19;;;;;;;11.15;5.42;;;;;;;25.27;53.29;100249.59;3687325;79;99454;-80
2022/06/18 20:58:20;;;;;;;16.42;5.72;;;;;;;25.21;53.56;100252.28;3696499;79;99117;-81
2022/06/18 21:03:21;;;;;;;12.70;5.45;;;;;;;25.13;53.88;100260.17;3696573;79;34924;-81
2022/06/18 21:08:22;;;;;;;13.62;5.40;;;;;;;24.96;53.85;100247.77;3691816;79;98727;-81
2022/06/18 21:13:24;;;;;;;11.48;5.20;;;;;;;24.89;54.14;100243.27;3708053;78;98816;-81
2022/06/18 21:18:25;;;;;;;18.10;5.97;;;;;;;24.73;55.21;100233.83;3665218;79;98824;-81
2022/06/18 21:23:26;;;;;;;12.78;5.87;;;;;;;24.57;55.63;100234.19;3615453;80;99087;-80
2022/06/18 21:28:27;;;;;;;7.47;4.45;;;;;;;24.39;56.14;100240.53;3665636;80;98843;-79
2022/06/18 21:38:48;;;;;;;10.18;4.97;;;;;;;24.05;57.13;100242.38;3654863;80;99012;-79
2022/06/18 21:43:50;;;;;;;9.53;4.42;;;;;;;23.93;57.11;100250.37;3654454;79;99421;-79
2022/06/18 21:48:52;;;;;;;9.98;5.28;;;;;;;23.86;57.60;100235.22;3669430;80;98676;-78
2022/06/18 21:53:54;;;;;;;9.27;4.77;;;;;;;23.80;58.10;100232.25;3681538;79;99391;-80
2022/06/18 21:58:55;;;;;;;10.75;5.08;;;;;;;23.74;58.31;100239.76;3651515;79;98899;-79
2022/06/18 22:03:57;;;;;;;10.28;4.90;;;;;;;23.71;58.87;100241.33;3682117;80;98154;-79
2022/06/18 22:08:58;;;;;;;8.13;4.50;;;;;;;23.66;59.82;100243.36;3679507;80;99054;-80
2022/06/18 22:19:21;;;;;;;11.63;5.05;;;;;;;23.63;61.16;100245.09;3705575;79;99062;-80
2022/06/18 22:24:22;;;;;;;11.33;4.80;;;;;;;23.65;61.70;100248.19;3713078;79;99742;-80
2022/06/18 22:29:23;;;;;;;9.93;5.50;;;;;;;23.67;62.14;100247.73;3690483;79;98951;-81
2022/06/18 22:34:26;;;;;;;9.23;5.05;;;;;;;23.66;63.40;100253.96;3680760;79;98928;-83
2022/06/18 22:39:34;;;;;;;9.58;5.03;;;;;;;23.66;63.82;100252.55;3684455;79;98830;-81
2022/06/18 22:44:36;;;;;;;9.60;4.97;;;;;;;23.62;63.73;100262.41;3687763;79;100127;-83
2022/06/18 22:49:42;;;;;;;11.48;5.65;;;;;;;23.58;64.87;100261.77;3702658;79;98577;-81
2022/06/18 22:54:46;;;;;;;;;;;;;;;23.53;64.96;100256.78;3718868;79;98642;-82
2022/06/18 22:59:47;;;;;;;9.23;5.28;;;;;;;23.48;67.58;100253.22;3708180;78;84453;-82
2022/06/18 23:04:48;;;;;;;10.40;5.22;;;;;;;23.42;65.25;100245.23;3711474;79;99145;-82
2022/06/18 23:09:49;;;;;;;10.05;5.20;;;;;;;23.33;65.67;100254.44;3711355;79;98966;-82
2022/06/18 23:14:57;;;;;;;9.00;5.35;;;;;;;23.28;65.73;100253.66;3710308;78;34841;-82
2022/06/18 23:20:06;;;;;;;8.85;5.30;;;;;;;23.22;66.29;100256.17;3674868;79;98644;-83
2022/06/18 23:25:09;;;;;;;9.28;5.92;;;;;;;23.17;66.07;100260.36;3688947;79;98640;-81
2022/06/18 23:30:13;;;;;;;10.32;5.05;;;;;;;23.07;66.23;100265.80;3677016;79;98359;-82
2022/06/18 23:35:18;;;;;;;8.70;5.55;;;;;;;23.02;66.70;100274.83;3672992;80;99248;-80
2022/06/18 23:40:31;;;;;;;9.23;5.15;;;;;;;22.92;66.03;100264.83;3681423;79;98746;-81
2022/06/18 23:45:34;;;;;;;8.78;4.87;;;;;;;22.87;66.98;100267.45;3689060;80;25322;-82
2022/06/18 23:50:36;;;;;;;11.73;5.00;;;;;;;22.77;67.21;100262.45;3667775;79;98694;-81
2022/06/18 23:55:44;;;;;;;9.00;4.75;;;;;;;22.70;67.64;100259.14;3677726;80;99259;-81
